Nearby METAR Reports for Burr Ridge, IL

 

KMDW - Chicago, Illinois, USA
Distance from station: ENE 8mi, 13km
Updated: Sun, 21-Apr-2019 3:53pm MST
Partly cloudy
Partly cloudy
 Wind from S
Wind: S 15 mph , 24 km/h, Gust: 25 mph , 41 km/h
Temperature: 75°F , 24°C
Dew Point: 36°F , 2°C
Humidity: 24%
Barometer: 29.97 inHg , 1014.9 hPa
Clouds: Partly cloudy
Visibility: 10 miles , 16 km
Cloud details: Few Clouds 200 ft
Partly cloudy 25000 ft
2019/04/21 22:53 KMDW 212253Z 19013G22KT 10SM FEW002 SCT250 24/02 A2997 RMK AO2 SLP147 FU FEW002 T02440017
KLOT - Romeoville/Chi, Illinois, USA
Distance from station: SW 15mi, 24km
Updated: Sun, 21-Apr-2019 3:55pm MST
Clear
Clear
 Wind from S
Wind: S 18 mph , 30 km/h
Temperature: 75°F , 24°C
Dew Point: 39°F , 4°C
Humidity: 27%
Barometer: 29.97 inHg , 1014.9 hPa
Clouds: Clear
Visibility: 10 miles , 16 km
2019/04/21 22:55 KLOT 212255Z AUTO 19016KT 10SM CLR 24/04 A2997 RMK AO2 T02390042
 
KORD - Chicago O'hare, Illinois, USA
Distance from station: N 16mi, 25km
Updated: Sun, 21-Apr-2019 3:51pm MST
Partly cloudy
Partly cloudy
 Wind from S
Wind: S 15 mph , 24 km/h, Gust: 24 mph , 39 km/h
Temperature: 75°F , 24°C
Dew Point: 37°F , 3°C
Humidity: 25%
Barometer: 29.96 inHg , 1014.6 hPa
Clouds: Partly cloudy
Visibility: 10 miles , 16 km
Cloud details: Few Clouds 15000 ft
Partly cloudy 25000 ft
2019/04/21 22:51 KORD 212251Z 17013G21KT 10SM FEW150 SCT250 24/03 A2996 RMK AO2 SLP143 T02440028
KDPA - Chicago/Dupage, Illinois, USA
Distance from station: WNW 21mi, 34km
Updated: Sun, 21-Apr-2019 3:52pm MST
Clear
Clear
 Wind from S
Wind: S 14 mph , 22 km/h
Temperature: 75°F , 24°C
Dew Point: 37°F , 3°C
Humidity: 25%
Barometer: 29.95 inHg , 1014.2 hPa
Clouds: Clear
Visibility: 10 miles , 16 km
2019/04/21 22:52 KDPA 212252Z 17012KT 10SM CLR 24/03 A2995 RMK AO2 SLP142 T02440033
 
KJOT - Joliet, Illinois, USA
Distance from station: SW 22mi, 36km
Updated: Sun, 21-Apr-2019 3:55pm MST
Clear
Clear
 Wind from SSE
Wind: SSE 9 mph , 15 km/h, Gust: 20 mph , 31 km/h
Temperature: 77°F , 25°C
Dew Point: 36°F , 2°C
Humidity: 22%
Barometer: 29.97 inHg , 1014.9 hPa
Clouds: Clear
Visibility: 10 miles , 16 km
2019/04/21 22:55 KJOT 212255Z AUTO 16008G17KT 10SM CLR 25/02 A2997 RMK AO2 T02500021
KIGQ - Chicago/Lansing, Illinois, USA
Distance from station: SE 24mi, 39km
Updated: Sun, 21-Apr-2019 3:55pm MST
Clear
Clear
 Wind from S
Wind: S 12 mph , 19 km/h
Temperature: 73°F , 23°C
Dew Point: 43°F , 6°C
Humidity: 33%
Barometer: 29.99 inHg , 1015.6 hPa
Clouds: Clear
Visibility: 10 miles , 16 km
2019/04/21 22:55 KIGQ 212255Z AUTO 17010KT 10SM CLR 23/06 A2999 RMK AO2 T02310064
 
KPWK - Palwaukee, Illinois, USA
Distance from station: N 25mi, 40km
Updated: Sun, 21-Apr-2019 3:52pm MST
Clear
Clear
 Wind from S
Wind: S 16 mph , 26 km/h
Temperature: 77°F , 25°C
Dew Point: 37°F , 3°C
Humidity: 24%
Barometer: 29.97 inHg , 1014.9 hPa
Clouds: Clear
Visibility: 10 miles , 16 km
2019/04/21 22:52 KPWK 212252Z 19014KT 10SM CLR 25/03 A2997 RMK AO2 SLP147 T02500028 $
KGYY - Gary Regional, Indiana, USA
Distance from station: ESE 27mi, 43km
Updated: Sun, 21-Apr-2019 3:45pm MST
Partly cloudy
Partly cloudy
 Wind from SE
Wind: SE 15 mph , 24 km/h
Temperature: 77°F , 25°C
Dew Point: 27°F , -3°C
Humidity: 15%
Barometer: 29.99 inHg , 1015.6 hPa
Clouds: Partly cloudy
Visibility: 15 miles , 24 km
Cloud details: Partly cloudy 25000 ft
2019/04/21 22:45 KGYY 212245Z 14013KT 15SM SCT250 25/M03 A2999
 
KARR - Chicago/Aurora, Illinois, USA
Distance from station: W 30mi, 48km
Updated: Sun, 21-Apr-2019 3:52pm MST
Clear
Clear
 Wind from S
Wind: S 16 mph , 26 km/h
Temperature: 75°F , 24°C
Dew Point: 39°F , 4°C
Humidity: 27%
Barometer: 29.95 inHg , 1014.2 hPa
Clouds: Clear
Visibility: 10 miles , 16 km
2019/04/21 22:52 KARR 212252Z 18014KT 10SM CLR 24/04 A2995 RMK AO2 SLP142 T02440044
KC09 - Morris-Washburn, Illinois, USA
Distance from station: SW 35mi, 56km
Updated: Sun, 21-Apr-2019 3:55pm MST

 Wind from S
Wind: S 12 mph , 19 km/h, Gust: 17 mph , 28 km/h
Temperature: 75°F , 24°C
Dew Point: 41°F , 5°C
Humidity: 29%
Barometer: 29.96 inHg , 1014.6 hPa
Visibility: 10 miles , 16 km
2019/04/21 22:55 KC09 212255Z AUTO 19010G15KT 10SM 24/05 A2996 RMK AO2 T02390046
 
KDKB - De Kalb, Illinois, USA
Distance from station: WNW 43mi, 69km
Updated: Sun, 21-Apr-2019 3:55pm MST
Clear
Clear
 Wind from S
Wind: S 21 mph , 33 km/h, Gust: 24 mph , 39 km/h
Temperature: 75°F , 24°C
Dew Point: 43°F , 6°C
Humidity: 31%
Barometer: 29.96 inHg , 1014.6 hPa
Clouds: Clear
Visibility: 10 miles , 16 km
2019/04/21 22:55 KDKB 212255Z AUTO 17018G21KT 10SM CLR 24/06 A2996 RMK AO2 T02400056
KUGN - Waukegan, Illinois, USA
Distance from station: N 46mi, 73km
Updated: Sun, 21-Apr-2019 3:55pm MST
Clear
Clear
 Wind from SSE
Wind: SSE 14 mph , 22 km/h
Temperature: 64°F , 18°C
Dew Point: 30°F , -1°C
Humidity: 28%
Barometer: 29.95 inHg , 1014.2 hPa
Clouds: Clear
Visibility: 10 miles , 16 km
2019/04/21 22:55 KUGN 212255Z 15012KT 10SM CLR 18/M01 A2995 RMK AO2 SLP141 T01781011 $
 
KIKK - Kankakee, Illinois, USA
Distance from station: S 48mi, 77km
Updated: Sun, 21-Apr-2019 3:55pm MST
Clear
Clear
 Wind from S
Wind: S 10 mph , 17 km/h, Gust: 16 mph , 26 km/h
Temperature: 75°F , 24°C
Dew Point: 37°F , 3°C
Humidity: 25%
Barometer: 30.01 inHg , 1016.3 hPa
Clouds: Clear
Visibility: 10 miles , 16 km
2019/04/21 22:55 KIKK 212255Z AUTO 17009G14KT 10SM CLR 24/03 A3001 RMK AO2 T02350025